Time;durP1;ratioP1;P1;durP2;ratioP2;P2;SDS_P1;SDS_P2;PMS_P1;PMS_P2;Temp;Humidity;BMP_temperature;BMP_pressure;BME280_temperature;BME280_humidity;BME280_pressure;Samples;Min_cycle;Max_cycle;Signal;HPM_P1;HPM_P2
2021/11/16 00:02:13;;;;;;;6.60;5.13;;;;;;;;;;5072997;28;20040;-79
2021/11/16 00:04:39;;;;;;;;;;;;;;;;;;5077001;28;20040;-77
2021/11/16 00:07:06;;;;;;;18.40;4.13;;;;;;;;;;5075309;28;19916;-80
2021/11/16 00:09:32;;;;;;;10.85;4.53;;;;;;;;;;5084407;28;20184;-77
2021/11/16 00:11:58;;;;;;;8.38;6.20;;;;;;;;;;5083916;28;20131;-78
2021/11/16 00:14:25;;;;;;;9.48;7.93;;;;;;;;;;5088433;28;20040;-80
2021/11/16 00:16:51;;;;;;;15.13;6.93;;;;;;;;;;5090633;28;20455;-77
2021/11/16 00:19:18;;;;;;;12.50;7.72;;;;;;;;;;5088326;28;20035;-80
2021/11/16 00:21:44;;;;;;;;;;;;;;;;;;5089633;28;20039;-77
2021/11/16 00:24:15;;;;;;;6.70;6.07;;;;;;;;;;5078596;28;19916;-77
2021/11/16 00:26:45;;;;;;;12.68;7.60;;;;;;;;;;5087924;28;20082;-81
2021/11/16 00:29:11;;;;;;;19.60;8.23;;;;;;;;;;5062210;28;20405;-80
2021/11/16 00:31:37;;;;;;;14.73;6.38;;;;;;;;;;5078272;28;20502;-80
2021/11/16 00:34:04;;;;;;;11.98;7.05;;;;;;;;;;5083135;28;20409;-78
2021/11/16 00:36:31;;;;;;;11.43;5.30;;;;;;;;;;5080472;28;20029;-78
2021/11/16 00:38:58;;;;;;;13.85;7.63;;;;;;;;;;5085627;28;20036;-76
2021/11/16 00:41:24;;;;;;;14.98;7.65;;;;;;;;;;5091296;28;20446;-78
2021/11/16 00:43:50;;;;;;;10.18;5.93;;;;;;;;;;5088957;28;20089;-80
2021/11/16 00:46:17;;;;;;;13.40;7.43;;;;;;;;;;5090354;28;20097;-80
2021/11/16 00:48:43;;;;;;;10.23;6.93;;;;;;;;;;5065244;28;20067;-79
2021/11/16 00:51:10;;;;;;;11.55;5.80;;;;;;;;;;5090692;28;20055;-80
2021/11/16 00:53:37;;;;;;;9.18;6.88;;;;;;;;;;5083885;28;20040;-76
2021/11/16 00:56:05;;;;;;;11.65;7.20;;;;;;;;;;5089726;28;20127;-77
2021/11/16 00:58:31;;;;;;;25.77;10.65;;;;;;;;;;5094361;28;20078;-78
2021/11/16 01:00:57;;;;;;;10.75;7.43;;;;;;;;;;5056055;28;20082;-78
2021/11/16 01:03:24;;;;;;;14.00;7.28;;;;;;;;;;5078537;28;20039;-78
2021/11/16 01:05:51;;;;;;;12.15;6.20;;;;;;;;;;5071941;28;20035;-77
2021/11/16 01:08:17;;;;;;;14.68;7.13;;;;;;;;;;5086021;28;20047;-81
2021/11/16 01:10:44;;;;;;;12.68;8.90;;;;;;;;;;5083619;28;20037;-80
2021/11/16 01:13:11;;;;;;;17.08;7.53;;;;;;;;;;5089620;28;20050;-78
2021/11/16 01:15:38;;;;;;;11.15;6.53;;;;;;;;;;5089265;28;20035;-79
2021/11/16 01:18:05;;;;;;;16.90;7.90;;;;;;;;;;5072243;28;20424;-76
2021/11/16 01:20:31;;;;;;;17.33;7.22;;;;;;;;;;5059334;28;20490;-80
2021/11/16 01:22:58;;;;;;;13.70;6.30;;;;;;;;;;5085255;28;20059;-77
2021/11/16 01:25:26;;;;;;;12.52;5.93;;;;;;;;;;5089025;28;20389;-78
2021/11/16 01:27:56;;;;;;;19.23;7.35;;;;;;;;;;5068183;28;20044;-78
2021/11/16 01:30:26;;;;;;;7.78;6.47;;;5.10;99.90;;;;;;5088400;28;20040;-77
2021/11/16 01:33:03;;;;;;;20.58;8.40;;;5.70;99.90;;;;;;5087163;28;20071;-80
2021/11/16 01:35:31;;;;;;;16.60;9.93;;;4.90;99.90;;;;;;5102849;28;20047;-78
2021/11/16 01:37:56;;;;;;;15.57;6.65;;;5.10;99.90;;;;;;5077871;28;20040;-77
2021/11/16 01:40:22;;;;;;;13.30;8.20;;;5.10;99.90;;;;;;5082957;28;20425;-80
2021/11/16 01:42:51;;;;;;;13.25;7.75;;;5.10;99.90;;;;;;5089620;28;20081;-79
2021/11/16 01:45:18;;;;;;;13.65;6.70;;;5.00;99.90;;;;;;5084969;28;20131;-81
2021/11/16 01:47:45;;;;;;;16.42;6.78;;;5.00;99.90;;;;;;5082124;28;20445;-81
2021/11/16 01:50:12;;;;;;;19.40;8.70;;;5.10;99.90;;;;;;5082069;28;20053;-80
2021/11/16 01:52:38;;;;;;;13.32;6.25;;;5.10;99.90;;;;;;5099186;28;20474;-80
2021/11/16 01:55:06;;;;;;;20.88;8.10;;;5.10;99.90;;;;;;5083313;28;20072;-80
2021/11/16 01:57:33;;;;;;;15.13;6.78;;;5.10;99.90;;;;;;5090729;28;20040;-77
2021/11/16 01:59:59;;;;;;;18.90;7.70;;;5.20;99.90;;;;;;5091499;28;20036;-77
2021/11/16 02:02:24;;;;;;;8.55;5.80;;;5.10;99.90;;;;;;5076191;28;20045;-80
2021/11/16 02:04:50;;;;;;;14.73;7.00;;;5.10;99.90;;;;;;5085904;28;20036;-77
2021/11/16 02:07:16;;;;;;;27.00;8.27;;;5.00;99.90;;;;;;5093122;28;20040;-77
2021/11/16 02:09:43;;;;;;;13.90;6.07;;;5.40;99.90;;;;;;5087983;28;20527;-77
2021/11/16 02:12:09;;;;;;;20.73;8.02;;;5.00;99.90;;;;;;5044702;28;20726;-79
2021/11/16 02:14:35;;;;;;;19.70;9.60;;;5.10;99.90;;;;;;5085140;28;20028;-78
2021/11/16 02:17:03;;;;;;;11.13;7.05;;;4.90;99.90;;;;;;5082459;28;20044;-77
2021/11/16 02:19:29;;;;;;;12.60;7.75;;;5.10;99.90;;;;;;5086567;28;20089;-77
2021/11/16 02:21:54;;;;;;;11.50;6.55;;;5.00;99.90;;;;;;5082120;28;20127;-78
2021/11/16 02:24:21;;;;;;;12.75;7.72;;;5.00;99.90;;;;;;5090556;28;20040;-79
2021/11/16 02:26:47;;;;;;;11.93;6.38;;;5.10;99.90;;;;;;5092499;28;20070;-80
2021/11/16 02:29:13;;;;;;;13.77;8.45;;;5.00;99.90;;;;;;5090090;28;20124;-81
2021/11/16 02:31:40;;;;;;;8.13;5.72;;;5.00;99.90;;;;;;5051690;28;20102;-79
2021/11/16 02:34:07;;;;;;;16.17;7.35;;;5.10;99.90;;;;;;5089194;28;20118;-78
2021/11/16 02:36:34;;;;;;;14.73;6.45;;;5.20;99.90;;;;;;5083390;28;20036;-78
2021/11/16 02:39:01;;;;;;;12.15;6.10;;;5.00;99.90;;;;;;5083196;28;20036;-79
2021/11/16 02:41:31;;;;;;;15.60;9.57;;;5.00;99.90;;;;;;5089055;28;20486;-76
2021/11/16 02:44:07;;;;;;;16.63;6.78;;;5.10;99.90;;;;;;5090725;28;20477;-81
2021/11/16 02:46:33;;;;;;;16.60;6.65;;;5.00;99.90;;;;;;5074236;28;20037;-79
2021/11/16 02:49:00;;;;;;;;;;;4.90;99.90;;;;;;5090755;28;20042;-81
2021/11/16 02:51:30;;;;;;;8.57;5.65;;;4.90;99.90;;;;;;5043677;28;19924;-78
2021/11/16 02:53:56;;;;;;;14.13;6.65;;;5.20;99.90;;;;;;5089750;28;20486;-79
2021/11/16 02:56:22;;;;;;;22.50;7.05;;;5.00;99.90;;;;;;5083556;28;20041;-78
2021/11/16 02:58:47;;;;;;;14.70;9.23;;;4.90;99.90;;;;;;5095499;28;20047;-80
2021/11/16 03:01:18;;;;;;;14.77;8.57;;;5.00;99.90;;;;;;5082399;28;20037;-80
2021/11/16 03:03:44;;;;;;;11.73;6.38;;;5.00;99.90;;;;;;5090841;28;20358;-79
2021/11/16 03:06:13;;;;;;;11.90;6.15;;;5.00;99.90;;;;;;5090811;28;20051;-79
2021/11/16 03:08:39;;;;;;;13.88;6.15;;;5.00;99.90;;;;;;5088228;28;20528;-79
2021/11/16 03:11:08;;;;;;;13.85;8.52;;;4.90;99.90;;;;;;5085808;28;20047;-79
2021/11/16 03:13:38;;;;;;;9.50;7.93;;;4.90;99.90;;;;;;5091265;28;20094;-78
2021/11/16 03:16:07;;;;;;;15.45;7.32;;;4.90;99.90;;;;;;5077428;28;20047;-80
2021/11/16 03:18:33;;;;;;;11.63;6.50;;;4.90;99.90;;;;;;5086135;28;20071;-78
2021/11/16 03:20:59;;;;;;;20.05;6.93;;;4.90;99.90;;;;;;5086682;28;20426;-81
2021/11/16 03:23:26;;;;;;;16.77;7.63;;;4.90;99.90;;;;;;5066047;28;20039;-80
2021/11/16 03:25:59;;;;;;;10.82;6.72;;;4.90;99.90;;;;;;5073845;28;20062;-79
2021/11/16 03:28:28;;;;;;;12.10;7.45;;;4.80;99.90;;;;;;5083953;28;20322;-81
2021/11/16 03:30:56;;;;;;;17.33;6.70;;;4.90;99.90;;;;;;5066004;28;20051;-78
2021/11/16 03:33:24;;;;;;;21.40;10.55;;;4.90;99.90;;;;;;5088584;28;20102;-78
2021/11/16 03:35:50;;;;;;;18.02;8.23;;;4.90;99.90;;;;;;5088792;28;20075;-78
2021/11/16 03:38:18;;;;;;;13.30;7.15;;;4.90;99.90;;;;;;5091063;28;20036;-79
2021/11/16 03:40:47;;;;;;;14.27;7.45;;;4.90;99.90;;;;;;5089097;28;20565;-78
2021/11/16 03:43:16;;;;;;;24.13;9.30;;;4.90;99.90;;;;;;5089360;28;20468;-78
2021/11/16 03:45:42;;;;;;;21.13;9.38;;;4.80;99.90;;;;;;5071661;28;20049;-79
2021/11/16 03:48:09;;;;;;;14.90;7.22;;;4.70;99.90;;;;;;5086305;28;20483;-78
2021/11/16 03:50:35;;;;;;;17.70;8.43;;;4.90;99.90;;;;;;5057396;28;20059;-77
2021/11/16 03:53:03;;;;;;;13.55;6.95;;;4.90;99.90;;;;;;5072372;28;20075;-78
2021/11/16 03:55:32;;;;;;;29.17;9.55;;;4.90;99.90;;;;;;5090305;28;20047;-79
2021/11/16 03:57:59;;;;;;;18.52;5.85;;;4.90;99.90;;;;;;5084379;28;20032;-78
2021/11/16 04:00:32;;;;;;;17.02;8.55;;;4.90;99.90;;;;;;5088965;28;20027;-76
2021/11/16 04:02:59;;;;;;;23.30;9.20;;;4.90;99.90;;;;;;5087240;28;20048;-76
2021/11/16 04:05:25;;;;;;;16.33;8.05;;;4.90;99.90;;;;;;5077760;28;20051;-77
2021/11/16 04:07:52;;;;;;;14.50;8.93;;;4.90;99.90;;;;;;5075813;28;20401;-80
2021/11/16 04:10:18;;;;;;;14.40;7.65;;;4.90;99.90;;;;;;5089232;28;20059;-79
2021/11/16 04:12:44;;;;;;;18.30;8.93;;;4.90;99.90;;;;;;5071223;28;20036;-79
2021/11/16 04:15:11;;;;;;;;;;;5.00;99.90;;;;;;5062681;28;20036;-78
2021/11/16 04:17:41;;;;;;;12.85;8.93;;;4.90;99.90;;;;;;5084363;28;19920;-77
2021/11/16 04:20:18;;;;;;;11.95;6.65;;;4.90;99.90;;;;;;5081309;28;20040;-78
2021/11/16 04:22:44;;;;;;;19.45;9.75;;;4.90;99.90;;;;;;5088163;28;20039;-76
2021/11/16 04:25:11;;;;;;;13.65;6.80;;;4.90;99.90;;;;;;5086859;28;20106;-76
2021/11/16 04:27:38;;;;;;;14.23;5.72;;;5.10;99.90;;;;;;5045476;28;20056;-78
2021/11/16 04:30:06;;;;;;;15.15;8.55;;;4.90;99.90;;;;;;5081620;28;20040;-78
2021/11/16 04:32:32;;;;;;;20.35;9.30;;;4.90;99.90;;;;;;5078864;28;20135;-78
2021/11/16 04:34:59;;;;;;;12.55;7.65;;;4.80;99.90;;;;;;5085134;28;20124;-79
2021/11/16 04:37:24;;;;;;;;;;;4.90;99.90;;;;;;5084628;28;20041;-78
2021/11/16 04:39:50;;;;;;;30.38;7.75;;;4.90;99.90;;;;;;5064704;28;19927;-78
2021/11/16 04:42:16;;;;;;;12.98;7.75;;;4.90;99.90;;;;;;5063029;28;20094;-78
2021/11/16 04:44:42;;;;;;;17.83;8.98;;;4.90;99.90;;;;;;5069505;28;20044;-79
2021/11/16 04:47:08;;;;;;;16.88;8.15;;;4.90;99.90;;;;;;5066863;28;20068;-77
2021/11/16 04:49:44;;;;;;;;;;;4.90;99.90;;;;;;5086572;28;20055;-77
2021/11/16 05:02:40;;;;;;;10.45;8.07;;;4.90;99.90;;;;;;5088836;28;20048;-79
2021/11/16 05:05:09;;;;;;;10.88;8.10;;;4.90;99.90;;;;;;5063900;28;20036;-78
2021/11/16 05:07:36;;;;;;;12.23;7.35;;;4.90;99.90;;;;;;5088841;28;20111;-77
2021/11/16 05:10:05;;;;;;;13.18;7.75;;;4.90;99.90;;;;;;5081582;28;20135;-77
2021/11/16 05:12:32;;;;;;;23.77;8.70;;;4.90;99.90;;;;;;5088121;28;20055;-78
2021/11/16 05:15:02;;;;;;;11.65;6.22;;;5.00;99.90;;;;;;5087747;28;20038;-80
2021/11/16 05:17:28;;;;;;;12.15;8.30;;;4.80;99.90;;;;;;5080450;28;20040;-80
2021/11/16 05:19:55;;;;;;;16.15;7.97;;;4.80;99.90;;;;;;5075932;28;20130;-77
2021/11/16 05:22:21;;;;;;;11.98;5.88;;;4.90;99.90;;;;;;5078904;28;20042;-81
2021/11/16 05:24:47;;;;;;;17.60;9.13;;;4.80;99.90;;;;;;5048041;28;20040;-81
2021/11/16 05:27:15;;;;;;;21.90;10.18;;;4.90;99.90;;;;;;5075191;28;20071;-76
2021/11/16 05:29:41;;;;;;;10.32;8.23;;;4.90;99.90;;;;;;5079504;28;20050;-78
2021/11/16 05:32:07;;;;;;;21.92;6.53;;;4.80;99.90;;;;;;5087199;28;20040;-80
2021/11/16 05:34:32;;;;;;;;;;;4.80;99.90;;;;;;5089649;28;20031;-79
2021/11/16 05:36:58;;;;;;;8.27;7.28;;;4.90;99.90;;;;;;5083812;28;20002;-80
2021/11/16 05:39:24;;;;;;;16.08;6.75;;;4.80;99.90;;;;;;5067526;28;20043;-79
2021/11/16 05:41:50;;;;;;;12.65;7.15;;;4.80;99.90;;;;;;5083799;28;20032;-80
2021/11/16 05:44:16;;;;;;;38.63;7.05;;;4.80;99.90;;;;;;5087141;28;20039;-78
2021/11/16 05:46:42;;;;;;;18.55;7.28;;;4.80;99.90;;;;;;5082768;28;20040;-78
2021/11/16 05:49:08;;;;;;;13.05;8.57;;;4.80;99.90;;;;;;5077949;28;20070;-79
2021/11/16 05:51:35;;;;;;;25.25;9.45;;;4.80;99.90;;;;;;5065364;28;20236;-79
2021/11/16 05:54:02;;;;;;;18.77;10.18;;;4.80;99.90;;;;;;5079669;28;20040;-79
2021/11/16 05:56:31;;;;;;;11.77;7.97;;;4.80;99.90;;;;;;5079779;28;20064;-79
2021/11/16 05:58:57;;;;;;;14.50;8.05;;;4.90;99.90;;;;;;5081959;28;20044;-77
2021/11/16 06:01:30;;;;;;;18.27;7.28;;;4.80;99.90;;;;;;5085168;28;20036;-78
2021/11/16 06:03:56;;;;;;;14.05;7.20;;;4.80;99.90;;;;;;5088082;28;20074;-79
2021/11/16 06:06:23;;;;;;;;;;;4.80;99.90;;;;;;5089227;28;20111;-80
2021/11/16 06:08:50;;;;;;;14.80;8.48;;;4.90;99.90;;;;;;5092867;28;19924;-78
2021/11/16 06:11:17;;;;;;;14.35;6.32;;;4.80;99.90;;;;;;5068214;28;20097;-77
2021/11/16 06:13:47;;;;;;;12.73;6.63;;;4.80;99.90;;;;;;5065922;28;20474;-76
2021/11/16 06:16:14;;;;;;;15.52;7.55;;;4.80;99.90;;;;;;5080148;28;20063;-80
2021/11/16 06:18:40;;;;;;;10.57;7.03;;;4.70;99.90;;;;;;5084591;28;20029;-78
2021/11/16 06:21:06;;;;;;;20.50;9.13;;;4.80;99.90;;;;;;5078102;28;20075;-77
2021/11/16 06:23:33;;;;;;;27.50;7.30;;;4.80;99.90;;;;;;5082180;28;20075;-80
2021/11/16 06:26:00;;;;;;;18.52;8.13;;;4.70;99.90;;;;;;5061733;28;20044;-80
2021/11/16 06:28:25;;;;;;;14.82;7.55;;;4.80;99.90;;;;;;5074846;28;20048;-77
2021/11/16 06:30:51;;;;;;;8.95;5.80;;;4.80;99.90;;;;;;5081103;28;20093;-78
2021/11/16 06:33:21;;;;;;;16.02;7.97;;;4.80;99.90;;;;;;5084854;28;20072;-77
2021/11/16 06:35:47;;;;;;;9.30;6.25;;;4.80;99.90;;;;;;5091456;28;20047;-79
2021/11/16 06:38:12;;;;;;;13.85;7.10;;;4.60;99.90;;;;;;5069802;28;20478;-77
2021/11/16 06:40:38;;;;;;;16.33;5.82;;;4.70;99.90;;;;;;5079345;28;20056;-79
2021/11/16 06:43:04;;;;;;;16.48;4.90;;;4.70;99.90;;;;;;5081161;28;20123;-77
2021/11/16 06:45:30;;;;;;;12.15;6.47;;;4.90;99.90;;;;;;5086188;28;20376;-77
2021/11/16 06:47:55;;;;;;;9.95;6.85;;;4.70;99.90;;;;;;5082588;28;20082;-78
2021/11/16 06:50:21;;;;;;;9.80;6.75;;;4.70;99.90;;;;;;5070391;28;20070;-79
2021/11/16 06:52:48;;;;;;;14.35;9.07;;;4.70;99.90;;;;;;5071915;28;20044;-79
2021/11/16 06:55:14;;;;;;;11.77;6.28;;;4.70;99.90;;;;;;5081236;28;20036;-77
2021/11/16 06:57:42;;;;;;;7.78;5.30;;;4.70;99.90;;;;;;5090376;28;20051;-80
2021/11/16 07:00:09;;;;;;;11.73;5.85;;;4.70;99.90;;;;;;5089082;28;20256;-79
2021/11/16 07:02:34;;;;;;;;;;;4.70;99.90;;;;;;5081415;28;20041;-79
2021/11/16 07:05:08;;;;;;;8.80;5.20;;;4.70;99.90;;;;;;5080346;28;19954;-80
2021/11/16 07:07:41;;;;;;;7.97;6.47;;;4.70;99.90;;;;;;5088459;28;20052;-79
2021/11/16 07:10:08;;;;;;;11.00;7.03;;;4.70;99.90;;;;;;5083885;28;20058;-78
2021/11/16 07:12:35;;;;;;;13.32;5.25;;;4.70;99.90;;;;;;5060705;28;20044;-80
2021/11/16 07:15:04;;;;;;;14.85;6.78;;;4.70;99.90;;;;;;5077056;28;20048;-78
2021/11/16 07:17:29;;;;;;;11.77;6.90;;;4.70;99.90;;;;;;5087170;28;20059;-80
2021/11/16 07:19:56;;;;;;;13.48;6.03;;;4.70;99.90;;;;;;5076626;28;20083;-79
2021/11/16 07:22:32;;;;;;;7.28;4.97;;;4.70;99.90;;;;;;5092031;28;20116;-78
2021/11/16 07:25:02;;;;;;;9.02;4.95;;;4.60;99.90;;;;;;5080661;28;20218;-79
2021/11/16 07:27:31;;;;;;;13.70;7.10;;;4.70;99.90;;;;;;5087433;28;20035;-81
2021/11/16 07:29:58;;;;;;;12.50;7.05;;;4.60;99.90;;;;;;5081382;28;20040;-78
2021/11/16 07:32:30;;;;;;;9.70;6.70;;;4.60;99.90;;;;;;5083649;28;20116;-78
2021/11/16 07:35:04;;;;;;;17.40;7.35;;;4.70;99.90;;;;;;5071055;28;20514;-79
2021/11/16 07:37:32;;;;;;;8.43;5.03;;;4.60;99.90;;;;;;5068249;28;20084;-78
2021/11/16 07:40:04;;;;;;;9.13;4.57;;;4.60;99.90;;;;;;5086265;28;20064;-81
2021/11/16 07:42:36;;;;;;;14.13;6.35;;;4.60;99.90;;;;;;5067188;28;20115;-78
2021/11/16 07:45:11;;;;;;;7.20;5.68;;;4.60;99.90;;;;;;5093563;28;20484;-80
2021/11/16 07:47:57;;;;;;;9.27;6.68;;;4.60;99.90;;;;;;5077802;28;20044;-78
2021/11/16 07:50:32;;;;;;;15.43;6.43;;;4.70;99.90;;;;;;5076982;28;20140;-80
2021/11/16 07:53:15;;;;;;;9.32;6.95;;;4.70;99.90;;;;;;5068647;28;20146;-81
2021/11/16 07:55:44;;;;;;;15.80;5.32;;;4.70;99.90;;;;;;5081035;28;20071;-79
2021/11/16 07:58:12;;;;;;;20.75;8.68;;;4.70;99.90;;;;;;5079833;28;20060;-79
2021/11/16 08:00:42;;;;;;;5.88;4.60;;;4.70;99.90;;;;;;5084683;28;20465;-77
2021/11/16 08:03:15;;;;;;;17.40;5.68;;;4.70;99.90;;;;;;5081245;28;20372;-78
2021/11/16 08:11:30;;;;;;;11.30;7.45;;;4.60;99.90;;;;;;5080744;28;20123;-78
2021/11/16 08:14:08;;;;;;;9.38;6.70;;;4.70;99.90;;;;;;5077838;28;20541;-79
2021/11/16 08:16:36;;;;;;;24.65;8.43;;;4.70;99.90;;;;;;5084134;28;20040;-80
2021/11/16 08:19:08;;;;;;;14.93;8.27;;;4.70;99.90;;;;;;5084056;28;20101;-80
2021/11/16 08:21:42;;;;;;;14.02;5.88;;;4.70;99.90;;;;;;5085066;28;20036;-79
2021/11/16 08:24:11;;;;;;;12.85;5.72;;;4.70;99.90;;;;;;5076102;28;20062;-78
2021/11/16 08:26:40;;;;;;;16.98;7.32;;;4.90;99.90;;;;;;5082100;28;20056;-78
2021/11/16 08:29:07;;;;;;;12.60;5.97;;;4.70;99.90;;;;;;5073691;28;20055;-80
2021/11/16 08:31:42;;;;;;;23.45;8.60;;;4.80;99.90;;;;;;5060263;28;20044;-78
2021/11/16 08:34:09;;;;;;;26.25;9.55;;;4.80;99.90;;;;;;5062639;28;20470;-80
2021/11/16 08:37:06;;;;;;;12.35;8.43;;;4.70;99.90;;;;;;5082848;28;20051;-81
2021/11/16 08:39:43;;;;;;;20.77;7.55;;;4.70;99.90;;;;;;5067311;28;20052;-82
2021/11/16 08:42:10;;;;;;;;;;;4.80;99.90;;;;;;5091394;28;20044;-78
2021/11/16 08:44:48;;;;;;;12.75;5.57;;;4.70;99.90;;;;;;5078563;28;19916;-79
2021/11/16 08:47:15;;;;;;;14.90;6.30;;;4.70;99.90;;;;;;5085815;28;20051;-80
2021/11/16 08:49:43;;;;;;;29.85;8.18;;;4.70;99.90;;;;;;5080515;28;20547;-80
2021/11/16 08:52:16;;;;;;;17.45;8.82;;;4.70;99.90;;;;;;5086765;28;20517;-81
2021/11/16 08:54:58;;;;;;;22.00;9.23;;;4.70;99.90;;;;;;5079894;28;20726;-79
2021/11/16 08:57:26;;;;;;;12.02;8.02;;;4.70;99.90;;;;;;5081136;28;20502;-80
2021/11/16 08:59:53;;;;;;;15.50;6.95;;;4.70;99.90;;;;;;5082463;28;20377;-80
2021/11/16 09:02:21;;;;;;;15.68;7.90;;;4.70;99.90;;;;;;5069217;28;20393;-80
2021/11/16 09:04:48;;;;;;;19.65;7.22;;;4.70;99.90;;;;;;5086429;28;20070;-77
2021/11/16 09:07:33;;;;;;;;;;;4.70;99.90;;;;;;5071119;28;20142;-77
2021/11/16 09:10:10;;;;;;;14.70;7.00;;;4.70;99.90;;;;;;5058679;28;19925;-79
2021/11/16 09:12:41;;;;;;;9.00;7.97;;;4.70;99.90;;;;;;5083023;28;20052;-78
2021/11/16 09:15:09;;;;;;;16.92;6.85;;;4.70;99.90;;;;;;5086408;28;20339;-80
2021/11/16 09:17:36;;;;;;;14.85;6.95;;;4.70;99.90;;;;;;5070640;28;20051;-79
2021/11/16 09:20:19;;;;;;;20.30;8.60;;;4.80;99.90;;;;;;5081691;28;20066;-77
2021/11/16 09:22:46;;;;;;;20.05;9.68;;;4.80;99.90;;;;;;5094923;28;20052;-78
2021/11/16 09:25:35;;;;;;;29.52;9.02;;;4.80;99.90;;;;;;5049335;28;20048;-79
2021/11/16 09:28:22;;;;;;;14.52;7.93;;;4.80;99.90;;;;;;5067288;28;20524;-79
2021/11/16 09:30:47;;;;;;;19.20;6.90;;;4.80;99.90;;;;;;5081355;28;20397;-80
2021/11/16 09:33:22;;;;;;;20.63;9.18;;;4.80;99.90;;;;;;5085280;28;20047;-81
2021/11/16 09:36:00;;;;;;;26.52;8.68;;;4.80;99.90;;;;;;5084340;28;20470;-80
2021/11/16 09:38:45;;;;;;;16.85;7.25;;;4.80;99.90;;;;;;5083493;28;20043;-77
2021/11/16 09:41:14;;;;;;;21.30;7.53;;;4.80;99.90;;;;;;5070104;28;20044;-81
2021/11/16 09:43:40;;;;;;;20.77;9.43;;;4.80;99.90;;;;;;5090561;28;20427;-78
2021/11/16 09:46:14;;;;;;;12.65;6.38;;;4.70;99.90;;;;;;5087461;28;20101;-79
2021/11/16 09:48:40;;;;;;;16.25;7.65;;;4.70;99.90;;;;;;5082369;28;20044;-80
2021/11/16 09:51:14;;;;;;;14.25;5.50;;;4.70;99.90;;;;;;5056246;28;20082;-78
2021/11/16 09:53:40;;;;;;;15.80;9.20;;;4.70;99.90;;;;;;5084962;28;20104;-79
2021/11/16 09:56:18;;;;;;;24.27;9.13;;;4.80;99.90;;;;;;5079759;28;20868;-81
2021/11/16 09:58:44;;;;;;;13.98;5.85;;;4.80;99.90;;;;;;5092508;28;20507;-81
2021/11/16 10:01:18;;;;;;;8.82;6.03;;;4.80;99.90;;;;;;5080956;28;20529;-79
2021/11/16 10:03:44;;;;;;;18.42;6.35;;;4.80;99.90;;;;;;5066328;28;20110;-80
2021/11/16 10:06:12;;;;;;;9.25;5.95;;;4.70;99.90;;;;;;5070003;28;20513;-78
2021/11/16 10:08:38;;;;;;;12.55;6.88;;;4.80;99.90;;;;;;5071483;28;20050;-79
2021/11/16 10:11:04;;;;;;;15.90;6.97;;;4.80;99.90;;;;;;5073775;28;20044;-77
2021/11/16 10:13:31;;;;;;;11.85;5.60;;;4.70;99.90;;;;;;5070359;28;20451;-79
2021/11/16 10:16:00;;;;;;;12.38;7.13;;;4.70;99.90;;;;;;5085663;28;20089;-78
2021/11/16 10:18:27;;;;;;;11.35;6.90;;;4.70;99.90;;;;;;5089902;28;20036;-80
2021/11/16 10:20:55;;;;;;;15.57;5.68;;;4.70;99.90;;;;;;5063188;28;20139;-78
2021/11/16 10:23:34;;;;;;;11.57;6.35;;;4.70;99.90;;;;;;5086065;28;20108;-79
2021/11/16 10:26:02;;;;;;;9.65;6.43;;;4.70;99.90;;;;;;5069717;28;20049;-80
2021/11/16 10:28:31;;;;;;;18.17;7.82;;;4.70;99.90;;;;;;5081378;28;20400;-79
2021/11/16 10:30:59;;;;;;;9.90;6.38;;;4.70;99.90;;;;;;5057004;28;20786;-79
2021/11/16 10:33:29;;;;;;;12.45;6.28;;;4.70;99.90;;;;;;5068438;28;20126;-82
2021/11/16 10:35:59;;;;;;;21.38;7.72;;;4.70;99.90;;;;;;5071670;28;20043;-79
2021/11/16 10:38:35;;;;;;;13.05;4.28;;;4.70;99.90;;;;;;5084998;28;20442;-78
2021/11/16 10:41:06;;;;;;;11.98;6.25;;;4.70;99.90;;;;;;5072255;28;20409;-81
2021/11/16 10:43:38;;;;;;;10.00;5.47;;;4.70;99.90;;;;;;5089641;28;20507;-79
2021/11/16 10:46:05;;;;;;;23.17;9.68;;;4.80;99.90;;;;;;5070024;28;20162;-79
2021/11/16 10:48:33;;;;;;;15.38;5.40;;;4.70;99.90;;;;;;5069628;28;20044;-80
2021/11/16 10:51:03;;;;;;;10.40;5.30;;;4.80;99.90;;;;;;5080039;28;20087;-78
2021/11/16 10:53:29;;;;;;;15.82;7.20;;;4.70;99.90;;;;;;5078642;28;20059;-78
2021/11/16 10:55:58;;;;;;;9.57;4.50;;;4.70;99.90;;;;;;5075136;28;20048;-80
2021/11/16 10:58:34;;;;;;;9.15;5.88;;;4.80;99.90;;;;;;5095316;28;20044;-80
2021/11/16 11:01:08;;;;;;;12.45;7.00;;;4.80;99.90;;;;;;5070963;28;20095;-79
2021/11/16 11:03:42;;;;;;;6.03;5.20;;;4.80;99.90;;;;;;5087461;28;20036;-80
2021/11/16 11:06:10;;;;;;;11.85;5.95;;;4.80;99.90;;;;;;5077400;28;20076;-80
2021/11/16 11:09:03;;;;;;;26.42;7.97;;;4.80;99.90;;;;;;5089648;28;20532;-80
2021/11/16 11:11:29;;;;;;;17.52;7.00;;;4.80;99.90;;;;;;5083072;28;20087;-79
2021/11/16 11:13:54;;;;;;;5.07;3.33;;;4.80;99.90;;;;;;5078702;28;20043;-80
2021/11/16 11:16:21;;;;;;;10.65;6.85;;;4.80;99.90;;;;;;5062479;28;20052;-78
2021/11/16 11:18:49;;;;;;;12.70;5.68;;;4.80;99.90;;;;;;5082715;28;20128;-79
2021/11/16 11:21:56;;;;;;;11.98;5.88;;;4.80;99.90;;;;;;5061976;28;20035;-81
2021/11/16 11:24:35;;;;;;;9.73;5.20;;;4.80;99.90;;;;;;5081997;28;20075;-80
2021/11/16 11:27:18;;;;;;;13.77;5.90;;;4.80;99.90;;;;;;5073806;28;20044;-81
2021/11/16 11:32:22;;;;;;;14.63;7.32;;;4.80;99.90;;;;;;5084571;28;20509;-80
2021/11/16 11:35:24;;;;;;;16.52;7.95;;;4.80;99.90;;;;;;5080677;28;20456;-79
2021/11/16 11:37:59;;;;;;;14.43;5.43;;;4.70;99.90;;;;;;5024383;28;20228;-80
2021/11/16 11:40:25;;;;;;;9.48;5.57;;;4.80;99.90;;;;;;5073191;28;20040;-80
2021/11/16 11:42:56;;;;;;;11.77;6.60;;;4.80;99.90;;;;;;5088109;28;20036;-79
2021/11/16 11:45:36;;;;;;;11.30;7.15;;;4.80;99.90;;;;;;5083214;28;20445;-79
2021/11/16 11:48:04;;;;;;;10.80;5.43;;;4.80;99.90;;;;;;5087479;28;20052;-81
2021/11/16 11:50:35;;;;;;;13.82;6.38;;;4.80;99.90;;;;;;5081342;28;20060;-78
2021/11/16 11:53:05;;;;;;;4.95;4.03;;;4.80;99.90;;;;;;5086666;28;20047;-81
2021/11/16 11:55:34;;;;;;;10.43;6.00;;;4.80;99.90;;;;;;5080114;28;20386;-81
2021/11/16 11:58:03;;;;;;;8.88;4.50;;;4.80;99.90;;;;;;5088830;28;20516;-78
2021/11/16 12:00:30;;;;;;;5.55;2.58;;;4.80;99.90;;;;;;5068036;28;20127;-78
2021/11/16 12:02:58;;;;;;;10.45;5.03;;;4.80;99.90;;;;;;5065597;28;20127;-79
2021/11/16 12:05:32;;;;;;;20.65;7.45;;;4.80;99.90;;;;;;5060526;28;20037;-79
2021/11/16 12:07:58;;;;;;;9.90;5.60;;;4.80;99.90;;;;;;5074240;28;20044;-78
2021/11/16 12:10:24;;;;;;;9.93;4.28;;;4.80;99.90;;;;;;5084555;28;20040;-80
2021/11/16 12:12:52;;;;;;;11.20;6.25;;;4.80;99.90;;;;;;5077393;28;20063;-81
2021/11/16 12:15:40;;;;;;;14.05;6.45;;;4.90;99.90;;;;;;5084029;28;20044;-79
2021/11/16 12:18:05;;;;;;;;;;;4.90;99.90;;;;;;5075952;28;20125;-78
2021/11/16 12:20:56;;;;;;;4.63;3.58;;;4.80;99.90;;;;;;5082886;28;19924;-81
2021/11/16 12:23:55;;;;;;;8.10;4.90;;;4.80;99.90;;;;;;5082778;28;20098;-78
2021/11/16 12:26:21;;;;;;;15.20;5.50;;;4.80;99.90;;;;;;5074626;28;20097;-81
2021/11/16 12:28:47;;;;;;;;;;;4.80;99.90;;;;;;5085127;28;20498;-80
2021/11/16 12:31:29;;;;;;;5.78;4.30;;;4.80;99.90;;;;;;5084242;28;19965;-79
2021/11/16 12:33:57;;;;;;;19.77;5.07;;;4.80;99.90;;;;;;5079240;28;20483;-80
2021/11/16 12:36:32;;;;;;;10.75;5.18;;;4.80;99.90;;;;;;5092199;28;20284;-78
2021/11/16 12:39:11;;;;;;;9.07;4.22;;;4.80;99.90;;;;;;5082654;28;20036;-78
2021/11/16 12:41:40;;;;;;;3.05;2.40;;;4.80;99.90;;;;;;5085272;28;20043;-80
2021/11/16 12:44:12;;;;;;;12.73;6.15;;;4.90;99.90;;;;;;5078340;28;20051;-80
2021/11/16 12:46:42;;;;;;;9.27;4.30;;;4.90;99.90;;;;;;5077796;28;20046;-79
2021/11/16 12:49:29;;;;;;;6.30;4.55;;;4.90;99.90;;;;;;5077106;28;20048;-78
2021/11/16 12:51:58;;;;;;;15.88;5.45;;;4.90;99.90;;;;;;5076070;28;20505;-80
2021/11/16 12:54:28;;;;;;;11.93;5.78;;;4.80;99.90;;;;;;5085920;28;20521;-79
2021/11/16 12:56:56;;;;;;;6.95;4.30;;;4.80;99.90;;;;;;5086710;28;20032;-82
2021/11/16 12:59:45;;;;;;;11.40;4.80;;;4.80;99.90;;;;;;5080668;28;20089;-80
2021/11/16 13:02:25;;;;;;;10.25;3.70;;;4.80;99.90;;;;;;5070877;28;20056;-80
2021/11/16 13:05:08;;;;;;;12.38;7.10;;;4.80;99.90;;;;;;5083363;28;20135;-78
2021/11/16 13:07:51;;;;;;;12.98;4.50;;;4.80;99.90;;;;;;5074750;28;20115;-79
2021/11/16 13:10:19;;;;;;;5.63;4.10;;;4.80;99.90;;;;;;5081811;28;20067;-78
2021/11/16 13:12:53;;;;;;;18.60;5.32;;;4.80;99.90;;;;;;5088223;28;20120;-80
2021/11/16 13:15:24;;;;;;;9.55;2.85;;;4.80;99.90;;;;;;5086627;28;20087;-81
2021/11/16 13:17:55;;;;;;;17.70;7.82;;;4.80;99.90;;;;;;5071492;28;20401;-80
2021/11/16 13:20:47;;;;;;;8.48;4.90;;;4.80;99.90;;;;;;5067138;28;20067;-80
2021/11/16 13:23:33;;;;;;;11.63;5.35;;;4.80;99.90;;;;;;5087701;28;20353;-81
2021/11/16 13:26:03;;;;;;;12.18;5.97;;;4.80;99.90;;;;;;5068074;28;20612;-78
2021/11/16 13:31:16;;;;;;;11.98;5.25;;;4.80;99.90;;;;;;5089162;28;20051;-78
2021/11/16 13:34:05;;;;;;;9.77;5.82;;;4.80;99.90;;;;;;5073084;28;20040;-79
2021/11/16 13:36:31;;;;;;;11.88;4.07;;;4.80;99.90;;;;;;5073453;28;20044;-81
2021/11/16 13:38:59;;;;;;;5.88;5.18;;;4.80;99.90;;;;;;5085879;28;20036;-79